sensor_id;sensor_type;location;lat;lon;timestamp;pressure;altitude;pressure_sealevel;temperature
64947;BMP280;51469;52.150;4.682;2024-02-04T00:00:12;102554.97;;;16.52
64947;BMP280;51469;52.150;4.682;2024-02-04T00:02:38;102557.81;;;16.56
64947;BMP280;51469;52.150;4.682;2024-02-04T00:05:04;102541.22;;;16.92
64947;BMP280;51469;52.150;4.682;2024-02-04T00:07:29;102548.00;;;16.65
64947;BMP280;51469;52.150;4.682;2024-02-04T00:09:54;102542.66;;;16.20
64947;BMP280;51469;52.150;4.682;2024-02-04T00:12:20;102556.66;;;16.60
64947;BMP280;51469;52.150;4.682;2024-02-04T00:14:46;102548.00;;;16.65
64947;BMP280;51469;52.150;4.682;2024-02-04T00:17:14;102544.25;;;16.84
64947;BMP280;51469;52.150;4.682;2024-02-04T00:19:40;102554.41;;;16.69
64947;BMP280;51469;52.150;4.682;2024-02-04T00:22:05;102544.31;;;16.54
64947;BMP280;51469;52.150;4.682;2024-02-04T00:24:30;102554.19;;;16.52
64947;BMP280;51469;52.150;4.682;2024-02-04T00:26:56;102546.63;;;16.82
64947;BMP280;51469;52.150;4.682;2024-02-04T00:29:21;102547.44;;;16.82
64947;BMP280;51469;52.150;4.682;2024-02-04T00:31:46;102548.75;;;16.62
64947;BMP280;51469;52.150;4.682;2024-02-04T00:34:12;102524.72;;;17.06
64947;BMP280;51469;52.150;4.682;2024-02-04T00:36:37;102548.84;;;17.06
64947;BMP280;51469;52.150;4.682;2024-02-04T00:39:02;102550.59;;;16.84
64947;BMP280;51469;52.150;4.682;2024-02-04T00:41:29;102554.66;;;16.90
64947;BMP280;51469;52.150;4.682;2024-02-04T00:43:54;102552.50;;;17.13
64947;BMP280;51469;52.150;4.682;2024-02-04T00:46:19;102546.56;;;17.11
64947;BMP280;51469;52.150;4.682;2024-02-04T00:48:45;102536.56;;;17.03
64947;BMP280;51469;52.150;4.682;2024-02-04T00:51:10;102512.97;;;17.23
64947;BMP280;51469;52.150;4.682;2024-02-04T00:53:35;102529.47;;;17.09
64947;BMP280;51469;52.150;4.682;2024-02-04T00:56:02;102530.44;;;17.27
64947;BMP280;51469;52.150;4.682;2024-02-04T00:58:28;102511.34;;;17.22
64947;BMP280;51469;52.150;4.682;2024-02-04T01:03:28;102517.66;;;17.16
64947;BMP280;51469;52.150;4.682;2024-02-04T01:05:54;102511.09;;;17.34
64947;BMP280;51469;52.150;4.682;2024-02-04T01:08:21;102513.53;;;17.42
64947;BMP280;51469;52.150;4.682;2024-02-04T01:10:46;102509.03;;;17.24
64947;BMP280;51469;52.150;4.682;2024-02-04T01:13:12;102509.03;;;17.24
64947;BMP280;51469;52.150;4.682;2024-02-04T01:15:37;102518.13;;;17.21
64947;BMP280;51469;52.150;4.682;2024-02-04T01:18:02;102507.41;;;17.20
64947;BMP280;51469;52.150;4.682;2024-02-04T01:20:28;102520.78;;;17.11
64947;BMP280;51469;52.150;4.682;2024-02-04T01:22:53;102512.88;;;17.13
64947;BMP280;51469;52.150;4.682;2024-02-04T01:25:19;102520.81;;;17.14
64947;BMP280;51469;52.150;4.682;2024-02-04T01:27:44;102525.34;;;16.92
64947;BMP280;51469;52.150;4.682;2024-02-04T01:30:09;102522.28;;;17.01
64947;BMP280;51469;52.150;4.682;2024-02-04T01:32:35;102525.84;;;17.02
64947;BMP280;51469;52.150;4.682;2024-02-04T01:35:00;102519.38;;;16.91
64947;BMP280;51469;52.150;4.682;2024-02-04T01:37:25;102520.72;;;17.07
64947;BMP280;51469;52.150;4.682;2024-02-04T01:39:51;102529.41;;;17.02
64947;BMP280;51469;52.150;4.682;2024-02-04T01:42:16;102535.72;;;16.99
64947;BMP280;51469;52.150;4.682;2024-02-04T01:44:41;102533.97;;;16.84
64947;BMP280;51469;52.150;4.682;2024-02-04T01:47:08;102528.53;;;16.95
64947;BMP280;51469;52.150;4.682;2024-02-04T01:49:34;102539.69;;;16.65
64947;BMP280;51469;52.150;4.682;2024-02-04T01:52:00;102537.66;;;16.62
64947;BMP280;51469;52.150;4.682;2024-02-04T01:54:26;102536.94;;;16.65
64947;BMP280;51469;52.150;4.682;2024-02-04T01:56:53;102528.84;;;16.53
64947;BMP280;51469;52.150;4.682;2024-02-04T01:59:19;102534.22;;;16.72
64947;BMP280;51469;52.150;4.682;2024-02-04T02:01:45;102534.28;;;16.79
64947;BMP280;51469;52.150;4.682;2024-02-04T02:04:11;102535.25;;;16.90
64947;BMP280;51469;52.150;4.682;2024-02-04T02:06:36;102527.53;;;17.13
64947;BMP280;51469;52.150;4.682;2024-02-04T02:09:07;102530.97;;;17.00
64947;BMP280;51469;52.150;4.682;2024-02-04T02:12:22;102527.28;;;16.89
64947;BMP280;51469;52.150;4.682;2024-02-04T02:14:26;102524.97;;;16.94
64947;BMP280;51469;52.150;4.682;2024-02-04T02:16:54;102532.13;;;16.95
64947;BMP280;51469;52.150;4.682;2024-02-04T02:20:10;102524.94;;;16.91
64947;BMP280;51469;52.150;4.682;2024-02-04T02:22:29;102531.97;;;16.81
64947;BMP280;51469;52.150;4.682;2024-02-04T02:24:58;102521.38;;;16.90
64947;BMP280;51469;52.150;4.682;2024-02-04T02:27:25;102528.75;;;16.79
64947;BMP280;51469;52.150;4.682;2024-02-04T02:29:51;102529.09;;;16.74
64947;BMP280;51469;52.150;4.682;2024-02-04T02:32:17;102527.72;;;16.94
64947;BMP280;51469;52.150;4.682;2024-02-04T02:34:43;102530.81;;;16.82
64947;BMP280;51469;52.150;4.682;2024-02-04T02:39:45;102528.06;;;16.86
64947;BMP280;51469;52.150;4.682;2024-02-04T02:42:11;102527.16;;;17.15
64947;BMP280;51469;52.150;4.682;2024-02-04T02:44:38;102527.88;;;17.08
64947;BMP280;51469;52.150;4.682;2024-02-04T02:47:05;102508.47;;;17.08
64947;BMP280;51469;52.150;4.682;2024-02-04T02:49:31;102524.06;;;17.23
64947;BMP280;51469;52.150;4.682;2024-02-04T02:51:57;102527.22;;;17.22
64947;BMP280;51469;52.150;4.682;2024-02-04T02:54:22;102521.75;;;16.89
64947;BMP280;51469;52.150;4.682;2024-02-04T02:56:47;102514.56;;;16.84
64947;BMP280;51469;52.150;4.682;2024-02-04T02:59:13;102524.59;;;16.92
64947;BMP280;51469;52.150;4.682;2024-02-04T03:01:39;102517.47;;;16.98
64947;BMP280;51469;52.150;4.682;2024-02-04T03:04:05;102517.59;;;17.12
64947;BMP280;51469;52.150;4.682;2024-02-04T03:06:30;102517.59;;;17.09
64947;BMP280;51469;52.150;4.682;2024-02-04T03:08:55;102507.22;;;17.02
64947;BMP280;51469;52.150;4.682;2024-02-04T03:11:21;102512.63;;;16.88
64947;BMP280;51469;52.150;4.682;2024-02-04T03:13:46;102521.13;;;16.69
64947;BMP280;51469;52.150;4.682;2024-02-04T03:16:12;102499.78;;;16.73
64947;BMP280;51469;52.150;4.682;2024-02-04T03:18:41;102507.00;;;16.81
64947;BMP280;51469;52.150;4.682;2024-02-04T03:21:16;102493.31;;;16.62
64947;BMP280;51469;52.150;4.682;2024-02-04T03:23:43;102498.13;;;16.65
64947;BMP280;51469;52.150;4.682;2024-02-04T03:26:09;102498.34;;;16.53
64947;BMP280;51469;52.150;4.682;2024-02-04T03:28:35;102491.28;;;16.56
64947;BMP280;51469;52.150;4.682;2024-02-04T03:31:00;102484.50;;;16.53
64947;BMP280;51469;52.150;4.682;2024-02-04T03:33:26;102494.16;;;16.66
64947;BMP280;51469;52.150;4.682;2024-02-04T03:35:51;102490.00;;;16.46
64947;BMP280;51469;52.150;4.682;2024-02-04T03:38:16;102506.34;;;16.58
64947;BMP280;51469;52.150;4.682;2024-02-04T03:40:42;102504.34;;;16.55
64947;BMP280;51469;52.150;4.682;2024-02-04T03:43:08;102521.72;;;16.52
64947;BMP280;51469;52.150;4.682;2024-02-04T03:45:35;102530.81;;;16.82
64947;BMP280;51469;52.150;4.682;2024-02-04T03:48:00;102522.44;;;16.79
64947;BMP280;51469;52.150;4.682;2024-02-04T03:50:26;102519.53;;;16.68
64947;BMP280;51469;52.150;4.682;2024-02-04T03:52:51;102513.22;;;16.71
64947;BMP280;51469;52.150;4.682;2024-02-04T03:55:16;102510.13;;;16.76
64947;BMP280;51469;52.150;4.682;2024-02-04T03:57:42;102521.94;;;16.73
64947;BMP280;51469;52.150;4.682;2024-02-04T04:00:08;102518.41;;;16.43
64947;BMP280;51469;52.150;4.682;2024-02-04T04:02:34;102504.31;;;16.52
64947;BMP280;51469;52.150;4.682;2024-02-04T04:04:59;102505.41;;;16.80
64947;BMP280;51469;52.150;4.682;2024-02-04T04:07:24;102501.63;;;16.62
64947;BMP280;51469;52.150;4.682;2024-02-04T04:09:50;102493.31;;;16.62
64947;BMP280;51469;52.150;4.682;2024-02-04T04:12:15;102486.25;;;16.68
64947;BMP280;51469;52.150;4.682;2024-02-04T04:14:40;102483.41;;;16.61
64947;BMP280;51469;52.150;4.682;2024-02-04T04:17:06;102478.38;;;16.70
64947;BMP280;51469;52.150;4.682;2024-02-04T04:19:31;102477.47;;;16.59
64947;BMP280;51469;52.150;4.682;2024-02-04T04:21:58;102477.25;;;16.78
64947;BMP280;51469;52.150;4.682;2024-02-04T04:24:24;102477.72;;;16.84
64947;BMP280;51469;52.150;4.682;2024-02-04T04:26:50;102471.25;;;16.73
64947;BMP280;51469;52.150;4.682;2024-02-04T04:29:15;102464.19;;;16.75
64947;BMP280;51469;52.150;4.682;2024-02-04T04:31:40;102475.38;;;16.82
64947;BMP280;51469;52.150;4.682;2024-02-04T04:34:06;102479.09;;;16.64
64947;BMP280;51469;52.150;4.682;2024-02-04T04:36:31;102477.34;;;16.85
64947;BMP280;51469;52.150;4.682;2024-02-04T04:38:56;102472.94;;;16.77
64947;BMP280;51469;52.150;4.682;2024-02-04T04:41:22;102457.81;;;16.75
64947;BMP280;51469;52.150;4.682;2024-02-04T04:43:47;102465.81;;;16.80
64947;BMP280;51469;52.150;4.682;2024-02-04T04:46:13;102465.59;;;16.62
64947;BMP280;51469;52.150;4.682;2024-02-04T04:48:38;102455.28;;;16.59
64947;BMP280;51469;52.150;4.682;2024-02-04T04:51:03;102468.72;;;16.57
64947;BMP280;51469;52.150;4.682;2024-02-04T04:53:29;102461.66;;;16.63
64947;BMP280;51469;52.150;4.682;2024-02-04T04:55:54;102437.06;;;16.58
64947;BMP280;51469;52.150;4.682;2024-02-04T04:58:19;102427.25;;;16.64
64947;BMP280;51469;52.150;4.682;2024-02-04T05:00:45;102429.84;;;16.50
64947;BMP280;51469;52.150;4.682;2024-02-04T05:03:10;102447.44;;;16.68
64947;BMP280;51469;52.150;4.682;2024-02-04T05:05:35;102445.13;;;16.70
64947;BMP280;51469;52.150;4.682;2024-02-04T05:08:01;102452.78;;;16.47
64947;BMP280;51469;52.150;4.682;2024-02-04T05:10:26;102439.00;;;16.54
64947;BMP280;51469;52.150;4.682;2024-02-04T05:12:51;102443.44;;;16.62
64947;BMP280;51469;52.150;4.682;2024-02-04T05:15:17;102439.53;;;16.67
64947;BMP280;51469;52.150;4.682;2024-02-04T05:17:42;102438.03;;;16.76
64947;BMP280;51469;52.150;4.682;2024-02-04T05:20:08;102448.78;;;16.81
64947;BMP280;51469;52.150;4.682;2024-02-04T05:22:33;102411.94;;;16.77
64947;BMP280;51469;52.150;4.682;2024-02-04T05:24:59;102418.28;;;16.81
64947;BMP280;51469;52.150;4.682;2024-02-04T05:27:24;102421.44;;;16.80
64947;BMP280;51469;52.150;4.682;2024-02-04T05:29:50;102430.91;;;16.75
64947;BMP280;51469;52.150;4.682;2024-02-04T05:32:15;102435.91;;;16.63
64947;BMP280;51469;52.150;4.682;2024-02-04T05:34:40;102423.09;;;16.88
64947;BMP280;51469;52.150;4.682;2024-02-04T05:37:06;102426.19;;;16.79
64947;BMP280;51469;52.150;4.682;2024-02-04T05:39:31;102420.63;;;16.79
64947;BMP280;51469;52.150;4.682;2024-02-04T05:41:56;102424.94;;;16.73
64947;BMP280;51469;52.150;4.682;2024-02-04T05:44:22;102427.25;;;16.64
64947;BMP280;51469;52.150;4.682;2024-02-04T05:46:47;102418.91;;;16.61
64947;BMP280;51469;52.150;4.682;2024-02-04T05:49:12;102415.03;;;16.72
64947;BMP280;51469;52.150;4.682;2024-02-04T05:51:38;102411.16;;;16.80
64947;BMP280;51469;52.150;4.682;2024-02-04T05:54:07;102413.59;;;16.85
64947;BMP280;51469;52.150;4.682;2024-02-04T05:56:33;102411.16;;;16.80
64947;BMP280;51469;52.150;4.682;2024-02-04T05:58:58;102409.41;;;16.62
64947;BMP280;51469;52.150;4.682;2024-02-04T06:01:24;102414.41;;;16.89
64947;BMP280;51469;52.150;4.682;2024-02-04T06:03:49;102397.06;;;16.56
64947;BMP280;51469;52.150;4.682;2024-02-04T06:06:15;102402.47;;;16.82
64947;BMP280;51469;52.150;4.682;2024-02-04T06:08:42;102383.97;;;16.53
64947;BMP280;51469;52.150;4.682;2024-02-04T06:11:11;102383.31;;;16.66
64947;BMP280;51469;52.150;4.682;2024-02-04T06:13:40;102397.84;;;16.96
64947;BMP280;51469;52.150;4.682;2024-02-04T06:16:05;102389.78;;;16.84
64947;BMP280;51469;52.150;4.682;2024-02-04T06:18:31;102393.09;;;16.97
64947;BMP280;51469;52.150;4.682;2024-02-04T06:20:56;102381.25;;;17.03
64947;BMP280;51469;52.150;4.682;2024-02-04T06:23:22;102377.69;;;16.59
64947;BMP280;51469;52.150;4.682;2024-02-04T06:25:47;102377.75;;;16.66
64947;BMP280;51469;52.150;4.682;2024-02-04T06:28:13;102376.88;;;16.55
64947;BMP280;51469;52.150;4.682;2024-02-04T06:30:38;102377.53;;;16.42
64947;BMP280;51469;52.150;4.682;2024-02-04T06:33:03;102395.94;;;16.64
64947;BMP280;51469;52.150;4.682;2024-02-04T06:35:29;102375.28;;;16.54
64947;BMP280;51469;52.150;4.682;2024-02-04T06:37:54;102376.09;;;16.58
64947;BMP280;51469;52.150;4.682;2024-02-04T06:40:20;102379.78;;;16.69
64947;BMP280;51469;52.150;4.682;2024-02-04T06:42:45;102381.72;;;16.65
64947;BMP280;51469;52.150;4.682;2024-02-04T06:45:10;102380.00;;;16.54
64947;BMP280;51469;52.150;4.682;2024-02-04T06:47:36;102378.69;;;16.77
64947;BMP280;51469;52.150;4.682;2024-02-04T06:50:01;102374.78;;;16.89
64947;BMP280;51469;52.150;4.682;2024-02-04T06:52:30;102375.66;;;16.96
64947;BMP280;51469;52.150;4.682;2024-02-04T06:54:55;102381.72;;;16.65
64947;BMP280;51469;52.150;4.682;2024-02-04T06:57:21;102377.81;;;16.73
64947;BMP280;51469;52.150;4.682;2024-02-04T06:59:46;102381.81;;;16.79
64947;BMP280;51469;52.150;4.682;2024-02-04T07:02:11;102375.56;;;16.89
64947;BMP280;51469;52.150;4.682;2024-02-04T07:04:37;102376.13;;;17.05
64947;BMP280;51469;52.150;4.682;2024-02-04T07:07:02;102385.78;;;16.78
64947;BMP280;51469;52.150;4.682;2024-02-04T07:09:28;102377.19;;;16.90
64947;BMP280;51469;52.150;4.682;2024-02-04T07:11:53;102364.50;;;16.89
64947;BMP280;51469;52.150;4.682;2024-02-04T07:14:18;102367.59;;;16.84
64947;BMP280;51469;52.150;4.682;2024-02-04T07:16:44;102381.31;;;17.10
64947;BMP280;51469;52.150;4.682;2024-02-04T07:19:09;102374.50;;;17.04
64947;BMP280;51469;52.150;4.682;2024-02-04T07:21:34;102373.28;;;16.98
64947;BMP280;51469;52.150;4.682;2024-02-04T07:24:00;102370.16;;;17.03
64947;BMP280;51469;52.150;4.682;2024-02-04T07:26:25;102366.91;;;16.94
64947;BMP280;51469;52.150;4.682;2024-02-04T07:28:50;102367.44;;;16.63
64947;BMP280;51469;52.150;4.682;2024-02-04T07:31:18;102379.41;;;16.74
64947;BMP280;51469;52.150;4.682;2024-02-04T07:33:44;102375.03;;;16.73
64947;BMP280;51469;52.150;4.682;2024-02-04T07:36:10;102381.63;;;16.58
64947;BMP280;51469;52.150;4.682;2024-02-04T07:38:36;102386.66;;;16.82
64947;BMP280;51469;52.150;4.682;2024-02-04T07:41:01;102388.28;;;16.90
64947;BMP280;51469;52.150;4.682;2024-02-04T07:43:26;102385.94;;;16.96
64947;BMP280;51469;52.150;4.682;2024-02-04T07:45:52;102382.66;;;16.83
64947;BMP280;51469;52.150;4.682;2024-02-04T07:48:18;102385.88;;;16.85
64947;BMP280;51469;52.150;4.682;2024-02-04T07:50:45;102386.78;;;17.00
64947;BMP280;51469;52.150;4.682;2024-02-04T07:53:10;102374.28;;;16.76
64947;BMP280;51469;52.150;4.682;2024-02-04T07:55:36;102381.28;;;16.63
64947;BMP280;51469;52.150;4.682;2024-02-04T07:58:01;102368.34;;;16.77
64947;BMP280;51469;52.150;4.682;2024-02-04T08:00:26;102369.63;;;16.87
64947;BMP280;51469;52.150;4.682;2024-02-04T08:02:55;102376.09;;;17.02
64947;BMP280;51469;52.150;4.682;2024-02-04T08:05:20;102372.63;;;17.15
64947;BMP280;51469;52.150;4.682;2024-02-04T08:07:45;102371.75;;;17.04
64947;BMP280;51469;52.150;4.682;2024-02-04T08:10:11;102371.75;;;17.04
64947;BMP280;51469;52.150;4.682;2024-02-04T08:12:37;102356.59;;;16.91
64947;BMP280;51469;52.150;4.682;2024-02-04T08:15:03;102368.13;;;16.53
64947;BMP280;51469;52.150;4.682;2024-02-04T08:17:28;102372.16;;;16.59
64947;BMP280;51469;52.150;4.682;2024-02-04T08:19:56;102371.22;;;16.88
64947;BMP280;51469;52.150;4.682;2024-02-04T08:22:21;102380.19;;;16.31
64947;BMP280;51469;52.150;4.682;2024-02-04T08:24:47;102363.03;;;16.22
64947;BMP280;51469;52.150;4.682;2024-02-04T08:27:13;102361.00;;;16.52
64947;BMP280;51469;52.150;4.682;2024-02-04T08:29:41;102371.47;;;16.69
64947;BMP280;51469;52.150;4.682;2024-02-04T08:32:06;102335.28;;;16.52
64947;BMP280;51469;52.150;4.682;2024-02-04T08:34:32;102355.31;;;16.38
64947;BMP280;51469;52.150;4.682;2024-02-04T08:36:57;102355.53;;;16.59
64947;BMP280;51469;52.150;4.682;2024-02-04T08:39:23;102346.16;;;16.71
64947;BMP280;51469;52.150;4.682;2024-02-04T08:41:48;102345.41;;;16.77
64947;BMP280;51469;52.150;4.682;2024-02-04T08:44:13;102345.44;;;16.84
64947;BMP280;51469;52.150;4.682;2024-02-04T08:46:39;102339.97;;;16.95
64947;BMP280;51469;52.150;4.682;2024-02-04T08:49:04;102351.41;;;16.43
64947;BMP280;51469;52.150;4.682;2024-02-04T08:51:29;102340.69;;;16.85
64947;BMP280;51469;52.150;4.682;2024-02-04T08:53:55;102334.56;;;17.09
64947;BMP280;51469;52.150;4.682;2024-02-04T08:56:20;102332.19;;;17.14
64947;BMP280;51469;52.150;4.682;2024-02-04T08:58:45;102344.13;;;17.18
64947;BMP280;51469;52.150;4.682;2024-02-04T09:01:11;102338.63;;;17.28
64947;BMP280;51469;52.150;4.682;2024-02-04T09:03:36;102344.38;;;16.99
64947;BMP280;51469;52.150;4.682;2024-02-04T09:06:02;102351.16;;;17.02
64947;BMP280;51469;52.150;4.682;2024-02-04T09:08:27;102345.78;;;17.26
64947;BMP280;51469;52.150;4.682;2024-02-04T09:10:52;102349.66;;;17.15
64947;BMP280;51469;52.150;4.682;2024-02-04T09:13:18;102347.81;;;17.40
64947;BMP280;51469;52.150;4.682;2024-02-04T09:15:43;102355.72;;;17.38
64947;BMP280;51469;52.150;4.682;2024-02-04T09:18:08;102352.41;;;17.11
64947;BMP280;51469;52.150;4.682;2024-02-04T09:20:34;102352.06;;;17.23
64947;BMP280;51469;52.150;4.682;2024-02-04T09:22:59;102337.09;;;17.31
64947;BMP280;51469;52.150;4.682;2024-02-04T09:25:25;102359.13;;;17.17
64947;BMP280;51469;52.150;4.682;2024-02-04T09:27:50;102352.72;;;17.02
64947;BMP280;51469;52.150;4.682;2024-02-04T09:30:16;102361.31;;;16.87
64947;BMP280;51469;52.150;4.682;2024-02-04T09:32:41;102355.53;;;17.06
64947;BMP280;51469;52.150;4.682;2024-02-04T09:35:07;102350.44;;;17.15
64947;BMP280;51469;52.150;4.682;2024-02-04T09:37:34;102354.50;;;17.32
64947;BMP280;51469;52.150;4.682;2024-02-04T09:39:59;102365.53;;;17.21
64947;BMP280;51469;52.150;4.682;2024-02-04T09:42:25;102341.00;;;17.30
64947;BMP280;51469;52.150;4.682;2024-02-04T09:44:53;102345.09;;;16.92
64947;BMP280;51469;52.150;4.682;2024-02-04T09:47:20;102355.22;;;17.18
64947;BMP280;51469;52.150;4.682;2024-02-04T09:49:45;102350.34;;;17.01
64947;BMP280;51469;52.150;4.682;2024-02-04T09:52:13;102350.84;;;17.14
64947;BMP280;51469;52.150;4.682;2024-02-04T09:54:44;102359.63;;;17.26
64947;BMP280;51469;52.150;4.682;2024-02-04T09:57:10;102346.53;;;17.23
64947;BMP280;51469;52.150;4.682;2024-02-04T09:59:35;102348.28;;;17.52
64947;BMP280;51469;52.150;4.682;2024-02-04T10:02:03;102347.22;;;17.74
64947;BMP280;51469;52.150;4.682;2024-02-04T10:04:28;102349.94;;;17.70
64947;BMP280;51469;52.150;4.682;2024-02-04T10:06:54;102350.03;;;17.91
64947;BMP280;51469;52.150;4.682;2024-02-04T10:09:19;102345.69;;;18.01
64947;BMP280;51469;52.150;4.682;2024-02-04T10:11:44;102341.28;;;17.79
64947;BMP280;51469;52.150;4.682;2024-02-04T10:14:10;102346.53;;;17.23
64947;BMP280;51469;52.150;4.682;2024-02-04T10:16:35;102348.66;;;17.50
64947;BMP280;51469;52.150;4.682;2024-02-04T10:19:01;102340.78;;;17.63
64947;BMP280;51469;52.150;4.682;2024-02-04T10:21:28;102352.19;;;17.44
64947;BMP280;51469;52.150;4.682;2024-02-04T10:23:53;102353.38;;;17.36
64947;BMP280;51469;52.150;4.682;2024-02-04T10:26:19;102368.16;;;17.61
64947;BMP280;51469;52.150;4.682;2024-02-04T10:28:48;102375.91;;;17.31
64947;BMP280;51469;52.150;4.682;2024-02-04T10:31:14;102383.13;;;17.46
64947;BMP280;51469;52.150;4.682;2024-02-04T10:33:39;102388.19;;;16.83
64947;BMP280;51469;52.150;4.682;2024-02-04T10:36:05;102377.06;;;16.76
64947;BMP280;51469;52.150;4.682;2024-02-04T10:38:34;102367.72;;;16.98
64947;BMP280;51469;52.150;4.682;2024-02-04T10:41:01;102366.91;;;16.94
64947;BMP280;51469;52.150;4.682;2024-02-04T10:43:33;102374.78;;;16.85
64947;BMP280;51469;52.150;4.682;2024-02-04T10:46:05;102384.25;;;16.81
64947;BMP280;51469;52.150;4.682;2024-02-04T10:48:34;102376.91;;;16.62
64947;BMP280;51469;52.150;4.682;2024-02-04T10:51:16;102365.09;;;16.65
64947;BMP280;51469;52.150;4.682;2024-02-04T10:53:44;102364.38;;;16.35
64947;BMP280;51469;52.150;4.682;2024-02-04T10:56:27;102368.25;;;16.67
64947;BMP280;51469;52.150;4.682;2024-02-04T10:58:55;102376.16;;;16.65
64947;BMP280;51469;52.150;4.682;2024-02-04T11:01:22;102373.13;;;16.77
64947;BMP280;51469;52.150;4.682;2024-02-04T11:03:48;102372.53;;;17.01
64947;BMP280;51469;52.150;4.682;2024-02-04T11:06:15;102354.69;;;17.02
64947;BMP280;51469;52.150;4.682;2024-02-04T11:08:42;102357.09;;;17.07
64947;BMP280;51469;52.150;4.682;2024-02-04T11:11:07;102353.59;;;17.10
64947;BMP280;51469;52.150;4.682;2024-02-04T11:13:34;102355.03;;;16.94
64947;BMP280;51469;52.150;4.682;2024-02-04T11:16:06;102347.94;;;17.00
64947;BMP280;51469;52.150;4.682;2024-02-04T11:21:35;102350.91;;;17.27
64947;BMP280;51469;52.150;4.682;2024-02-04T11:26:43;102332.31;;;17.35
64947;BMP280;51469;52.150;4.682;2024-02-04T11:29:10;102327.72;;;17.67
64947;BMP280;51469;52.150;4.682;2024-02-04T11:31:38;102326.50;;;17.61
64947;BMP280;51469;52.150;4.682;2024-02-04T11:34:08;102331.56;;;17.38
64947;BMP280;51469;52.150;4.682;2024-02-04T11:36:38;102326.59;;;17.07
64947;BMP280;51469;52.150;4.682;2024-02-04T11:39:14;102319.81;;;17.69
64947;BMP280;51469;52.150;4.682;2024-02-04T11:41:47;102317.34;;;17.50
64947;BMP280;51469;52.150;4.682;2024-02-04T11:44:20;102317.38;;;17.57
64947;BMP280;51469;52.150;4.682;2024-02-04T11:46:46;102315.03;;;17.63
64947;BMP280;51469;52.150;4.682;2024-02-04T11:49:16;102319.00;;;17.65
64947;BMP280;51469;52.150;4.682;2024-02-04T11:51:45;102301.50;;;17.54
64947;BMP280;51469;52.150;4.682;2024-02-04T11:54:11;102303.50;;;17.60
64947;BMP280;51469;52.150;4.682;2024-02-04T11:56:39;102300.66;;;17.36
64947;BMP280;51469;52.150;4.682;2024-02-04T11:59:06;102315.28;;;17.33
64947;BMP280;51469;52.150;4.682;2024-02-04T12:01:33;102316.50;;;17.42
64947;BMP280;51469;52.150;4.682;2024-02-04T12:04:12;102297.53;;;17.48
64947;BMP280;51469;52.150;4.682;2024-02-04T12:06:41;102309.28;;;17.24
64947;BMP280;51469;52.150;4.682;2024-02-04T12:09:09;102300.72;;;17.57
64947;BMP280;51469;52.150;4.682;2024-02-04T12:11:36;102306.38;;;17.85
64947;BMP280;51469;52.150;4.682;2024-02-04T12:14:03;102296.47;;;17.91
64947;BMP280;51469;52.150;4.682;2024-02-04T12:16:31;102284.13;;;17.64
64947;BMP280;51469;52.150;4.682;2024-02-04T12:18:57;102288.94;;;17.95
64947;BMP280;51469;52.150;4.682;2024-02-04T12:21:23;102295.22;;;17.64
64947;BMP280;51469;52.150;4.682;2024-02-04T12:23:48;102273.81;;;17.75
64947;BMP280;51469;52.150;4.682;2024-02-04T12:26:14;102295.09;;;17.36
64947;BMP280;51469;52.150;4.682;2024-02-04T12:28:39;102296.72;;;17.51
64947;BMP280;51469;52.150;4.682;2024-02-04T12:31:05;102286.78;;;17.36
64947;BMP280;51469;52.150;4.682;2024-02-04T12:33:30;102270.69;;;17.87
64947;BMP280;51469;52.150;4.682;2024-02-04T12:35:56;102281.81;;;17.94
64947;BMP280;51469;52.150;4.682;2024-02-04T12:38:23;102294.53;;;18.16
64947;BMP280;51469;52.150;4.682;2024-02-04T12:40:48;102292.16;;;18.11
64947;BMP280;51469;52.150;4.682;2024-02-04T12:43:14;102288.84;;;17.60
64947;BMP280;51469;52.150;4.682;2024-02-04T12:45:39;102291.47;;;17.25
64947;BMP280;51469;52.150;4.682;2024-02-04T12:48:06;102288.03;;;17.56
64947;BMP280;51469;52.150;4.682;2024-02-04T12:50:32;102281.72;;;17.59
64947;BMP280;51469;52.150;4.682;2024-02-04T12:53:19;102282.13;;;17.71
64947;BMP280;51469;52.150;4.682;2024-02-04T12:55:44;102270.53;;;17.45
64947;BMP280;51469;52.150;4.682;2024-02-04T12:58:12;102276.09;;;17.48
64947;BMP280;51469;52.150;4.682;2024-02-04T13:00:40;102287.94;;;17.35
64947;BMP280;51469;52.150;4.682;2024-02-04T13:03:06;102287.03;;;17.14
64947;BMP280;51469;52.150;4.682;2024-02-04T13:05:35;102275.22;;;17.31
64947;BMP280;51469;52.150;4.682;2024-02-04T13:08:02;102273.75;;;17.54
64947;BMP280;51469;52.150;4.682;2024-02-04T13:10:30;102259.41;;;17.41
64947;BMP280;51469;52.150;4.682;2024-02-04T13:13:03;102261.09;;;17.63
64947;BMP280;51469;52.150;4.682;2024-02-04T13:15:32;102258.31;;;17.60
64947;BMP280;51469;52.150;4.682;2024-02-04T13:17:58;102250.03;;;17.74
64947;BMP280;51469;52.150;4.682;2024-02-04T13:20:24;102251.25;;;17.83
64947;BMP280;51469;52.150;4.682;2024-02-04T13:22:50;102252.41;;;17.86
64947;BMP280;51469;52.150;4.682;2024-02-04T13:25:16;102256.03;;;18.11
64947;BMP280;51469;52.150;4.682;2024-02-04T13:27:41;102280.91;;;17.55
64947;BMP280;51469;52.150;4.682;2024-02-04T13:30:08;102273.75;;;17.54
64947;BMP280;51469;52.150;4.682;2024-02-04T13:32:40;102270.63;;;17.73
64947;BMP280;51469;52.150;4.682;2024-02-04T13:35:07;102250.75;;;17.50
64947;BMP280;51469;52.150;4.682;2024-02-04T13:37:38;102253.88;;;17.38
64947;BMP280;51469;52.150;4.682;2024-02-04T13:40:04;102222.22;;;17.53
64947;BMP280;51469;52.150;4.682;2024-02-04T13:42:31;102213.47;;;17.48
64947;BMP280;51469;52.150;4.682;2024-02-04T13:44:57;102223.66;;;17.19
64947;BMP280;51469;52.150;4.682;2024-02-04T13:47:22;102210.31;;;17.52
64947;BMP280;51469;52.150;4.682;2024-02-04T13:49:47;102196.47;;;17.98
64947;BMP280;51469;52.150;4.682;2024-02-04T13:52:12;102196.91;;;18.00
64947;BMP280;51469;52.150;4.682;2024-02-04T13:54:38;102208.81;;;18.18
64947;BMP280;51469;52.150;4.682;2024-02-04T13:57:04;102216.34;;;18.14
64947;BMP280;51469;52.150;4.682;2024-02-04T13:59:29;102211.19;;;17.81
64947;BMP280;51469;52.150;4.682;2024-02-04T14:01:54;102208.75;;;17.79